Time;durP1;ratioP1;P1;durP2;ratioP2;P2;SDS_P1;SDS_P2;PMS_P1;PMS_P2;Temp;Humidity;BMP_temperature;BMP_pressure;BME280_temperature;BME280_humidity;BME280_pressure;Samples;Min_cycle;Max_cycle;Signal;HPM_P1;HPM_P2
2022/09/08 00:00:49;;;;;;;;;;;;;;;23.19;61.62;100995.13;2052861;28;19922;-74
2022/09/08 00:02:13;;;;;;;;;;;;;;;23.20;61.53;100993.34;2067424;28;19922;-74
2022/09/08 00:03:35;;;;;;;;;;;;;;;23.21;61.71;100992.41;2053737;28;19925;-74
2022/09/08 00:04:58;;;;;;;;;;;;;;;23.21;61.59;100987.03;2057896;28;19945;-74
2022/09/08 00:06:22;;;;;;;;;;;;;;;23.19;61.80;100991.56;2061306;28;20468;-73
2022/09/08 00:07:43;;;;;;;;;;;;;;;23.19;61.65;100995.13;2055656;28;19929;-73
2022/09/08 00:09:06;;;;;;;;;;;;;;;23.19;61.88;100984.38;2052909;28;19926;-73
2022/09/08 00:10:28;;;;;;;;;;;;;;;23.19;61.97;100986.19;2059148;28;19922;-74
2022/09/08 00:11:51;;;;;;;;;;;;;;;23.17;61.98;100991.59;2060767;28;19929;-74
2022/09/08 00:13:12;;;;;;;;;;;;;;;23.15;62.03;100990.81;2060335;28;19926;-73
2022/09/08 00:14:35;;;;;;;;;;;;;;;23.13;62.15;100992.66;2050642;28;19976;-73
2022/09/08 00:15:56;;;;;;;;;;;;;;;23.14;62.28;100999.81;2054234;28;19933;-73
2022/09/08 00:17:20;;;;;;;;;;;;;;;23.13;62.15;100992.66;2056140;28;20032;-73
2022/09/08 00:18:42;;;;;;;;;;;;;;;23.14;62.20;100988.16;2060814;28;19929;-73
2022/09/08 00:20:03;;;;;;;;;;;;;;;23.14;62.22;100982.75;2057798;28;20317;-73
2022/09/08 00:21:28;;;;;;;;;;;;;;;23.14;62.40;100990.84;2057039;28;19922;-73
2022/09/08 00:22:49;;;;;;;;;;;;;;;23.14;62.43;100993.53;2061470;28;19928;-73
2022/09/08 00:24:11;;;;;;;;;;;;;;;23.12;62.48;100982.81;2052893;28;19922;-73
2022/09/08 00:25:31;;;;;;;;;;;;;;;23.14;62.50;100983.66;2050599;28;19922;-73
2022/09/08 00:26:54;;;;;;;;;;;;;;;23.14;62.49;100983.66;2054463;28;19922;-74
2022/09/08 00:28:16;;;;;;;;;;;;;;;23.14;62.52;100989.03;2057228;28;20070;-73
2022/09/08 00:29:38;;;;;;;;;;;;;;;23.14;62.30;100977.38;2046370;29;19970;-74
2022/09/08 00:31:03;;;;;;;;;;;;;;;23.15;62.44;100985.41;2052125;28;19922;-74
2022/09/08 00:32:25;;;;;;;;;;;;;;;23.16;62.58;100980.91;2056219;28;20529;-73
2022/09/08 00:33:47;;;;;;;;;;;;;;;23.15;62.30;100985.41;2060006;28;20016;-73
2022/09/08 00:35:14;;;;;;;;;;;;;;;23.15;62.24;100984.53;2053500;28;20524;-73
2022/09/08 00:36:37;;;;;;;;;;;;;;;23.13;62.42;100978.28;2061562;28;20032;-74
2022/09/08 00:37:58;;;;;;;;;;;;;;;23.15;62.52;100979.13;2053185;28;19922;-73
2022/09/08 00:39:20;;;;;;;;;;;;;;;23.15;62.40;100984.53;2052798;28;20013;-74
2022/09/08 00:40:45;;;;;;;;;;;;;;;23.16;62.48;100978.22;2050642;28;20016;-73
2022/09/08 00:42:07;;;;;;;;;;;;;;;23.18;62.31;100979.91;2067090;28;20019;-75
2022/09/08 00:43:32;;;;;;;;;;;;;;;23.16;62.62;100973.72;2061232;28;20393;-75
2022/09/08 00:44:55;;;;;;;;;;;;;;;23.17;62.41;100974.59;2053187;28;19926;-74
2022/09/08 00:46:20;;;;;;;;;;;;;;;23.16;62.48;100981.78;2057376;28;19922;-74
2022/09/08 00:47:46;;;;;;;;;;;;;;;23.16;62.37;100976.41;2052999;28;19922;-74
2022/09/08 00:49:11;;;;;;;;;;;;;;;23.15;62.33;100974.63;2053532;28;19922;-74
2022/09/08 00:50:32;;;;;;;;;;;;;;;23.15;62.33;100971.06;2053711;28;20354;-74
2022/09/08 00:51:58;;;;;;;;;;;;;;;23.15;62.46;100981.84;2057324;28;19922;-75
2022/09/08 00:53:20;;;;;;;;;;;;;;;23.13;62.50;100981.88;2057086;28;19926;-73
2022/09/08 00:54:43;;;;;;;;;;;;;;;23.11;62.63;100981.03;2055277;28;19929;-74
2022/09/08 00:56:06;;;;;;;;;;;;;;;23.11;62.55;100977.47;2053808;28;20036;-74
2022/09/08 00:57:28;;;;;;;;;;;;;;;23.12;62.53;100976.53;2054331;28;19930;-73
2022/09/08 00:58:51;;;;;;;;;;;;;;;23.10;62.61;100976.59;2057912;28;20310;-74
2022/09/08 01:00:14;;;;;;;;;;;;;;;23.10;62.78;100975.72;2060652;28;19926;-74
2022/09/08 01:01:38;;;;;;;;;;;;;;;23.11;62.69;100977.47;2055445;28;20381;-73
2022/09/08 01:03:02;;;;;;;;;;;;;;;23.12;62.72;100987.31;2050090;28;19922;-74
2022/09/08 01:04:23;;;;;;;;;;;;;;;23.12;62.70;100979.22;2060869;28;19961;-74
2022/09/08 01:05:48;;;;;;;;;;;;;;;23.13;62.70;100979.19;2056684;28;19969;-74
2022/09/08 01:14:05;;;;;;;;;;;;;;;23.06;62.61;100985.69;2058634;28;19993;-74
2022/09/08 01:15:27;;;;;;;;;;;;;;;23.05;62.66;100973.16;2053564;28;19926;-73
2022/09/08 01:16:49;;;;;;;;;;;;;;;23.05;62.66;100984.81;2059845;28;19922;-73
2022/09/08 01:18:13;;;;;;;;;;;;;;;23.03;62.68;100981.31;2063153;28;19925;-74
2022/09/08 01:19:34;;;;;;;;;;;;;;;23.03;62.69;100993.88;2056354;28;19922;-73
2022/09/08 01:21:00;;;;;;;;;;;;;;;23.02;62.79;100984.94;2054979;28;19926;-73
2022/09/08 01:22:27;;;;;;;;;;;;;;;23.04;62.67;100987.53;2045857;29;19922;-73
2022/09/08 01:24:00;;;;;;;;;;;;;;;23.03;62.62;100984.00;2056322;28;20016;-73
2022/09/08 01:25:29;;;;;;;;;;;;;;;23.03;63.01;100981.31;2055706;28;19976;-73
2022/09/08 01:27:05;;;;;;;;;;;;;;;23.03;62.99;100975.91;2053050;28;19922;-73
2022/09/08 01:28:30;;;;;;;;;;;;;;;23.04;63.07;100976.78;2063432;28;19921;-73
2022/09/08 01:29:54;;;;;;;;;;;;;;;23.03;63.14;100975.91;2055354;28;20367;-74
2022/09/08 01:31:16;;;;;;;;;;;;;;;23.02;63.11;100974.16;2059552;28;19957;-73
2022/09/08 01:32:39;;;;;;;;;;;;;;;23.02;63.03;100968.78;2054105;28;20021;-73
2022/09/08 01:34:00;;;;;;;;;;;;;;;23.02;62.96;100974.16;2059731;28;20020;-74
2022/09/08 01:35:30;;;;;;;;;;;;;;;23.03;63.04;100975.03;2062061;28;19928;-73
2022/09/08 01:36:52;;;;;;;;;;;;;;;23.01;62.95;100971.50;2061476;28;19922;-73
2022/09/08 01:38:13;;;;;;;;;;;;;;;22.99;63.16;100971.53;2062944;28;19921;-73
2022/09/08 01:39:35;;;;;;;;;;;;;;;22.98;63.06;100966.19;2045172;29;19933;-73
2022/09/08 01:40:56;;;;;;;;;;;;;;;22.97;63.08;100965.31;2058087;28;19930;-73
2022/09/08 01:42:20;;;;;;;;;;;;;;;22.96;63.09;100968.97;2062373;28;19929;-73
2022/09/08 01:43:41;;;;;;;;;;;;;;;22.96;63.17;100968.97;2061294;28;19922;-73
2022/09/08 01:45:03;;;;;;;;;;;;;;;22.97;63.06;100973.41;2054935;28;19922;-73
2022/09/08 01:46:24;;;;;;;;;;;;;;;22.97;63.02;100973.41;2051008;28;19992;-73
2022/09/08 01:47:46;;;;;;;;;;;;;;;22.96;63.13;100968.97;2058414;28;19936;-73
2022/09/08 01:49:07;;;;;;;;;;;;;;;22.96;62.83;100973.47;2054870;28;19980;-73
2022/09/08 01:50:29;;;;;;;;;;;;;;;22.96;62.91;100968.97;2050356;28;19930;-74
2022/09/08 01:51:51;;;;;;;;;;;;;;;22.94;62.95;100969.94;2050768;28;19926;-74
2022/09/08 01:53:13;;;;;;;;;;;;;;;22.91;63.07;100967.31;2062162;28;19960;-73
2022/09/08 01:54:35;;;;;;;;;;;;;;;22.87;63.26;100968.38;2061449;28;19921;-73
2022/09/08 01:55:56;;;;;;;;;;;;;;;22.84;63.26;100971.19;2062090;28;20025;-73
2022/09/08 01:57:20;;;;;;;;;;;;;;;22.80;63.44;100962.28;2050832;28;20215;-74
2022/09/08 01:58:42;;;;;;;;;;;;;;;22.79;63.43;100970.41;2058837;28;20293;-74
2022/09/08 02:00:07;;;;;;;;;;;;;;;22.77;63.47;100973.19;2062164;28;19929;-73
2022/09/08 02:01:28;;;;;;;;;;;;;;;22.74;63.49;100967.00;2060203;28;19925;-74
2022/09/08 02:02:50;;;;;;;;;;;;;;;22.72;63.63;100968.81;2062775;28;20385;-73
2022/09/08 02:04:13;;;;;;;;;;;;;;;22.70;63.45;100971.56;2052939;28;19926;-73
2022/09/08 02:05:36;;;;;;;;;;;;;;;22.67;63.63;100972.53;2049319;28;20025;-74
2022/09/08 02:06:59;;;;;;;;;;;;;;;22.64;63.82;100964.53;2052069;28;19923;-73
2022/09/08 02:08:21;;;;;;;;;;;;;;;22.63;63.75;100964.59;2060165;28;20374;-73
2022/09/08 02:09:44;;;;;;;;;;;;;;;22.63;63.94;100965.50;2056648;28;19929;-73
2022/09/08 02:11:05;;;;;;;;;;;;;;;22.63;64.01;100965.50;2059379;28;20265;-74
2022/09/08 02:12:29;;;;;;;;;;;;;;;22.67;63.69;100968.97;2060930;28;19953;-74
2022/09/08 02:13:51;;;;;;;;;;;;;;;22.67;63.68;100969.84;2059925;28;19929;-74
2022/09/08 02:15:14;;;;;;;;;;;;;;;22.68;63.88;100965.34;2057176;28;19941;-74
2022/09/08 02:16:36;;;;;;;;;;;;;;;22.67;63.72;100961.75;2061159;28;20360;-74
2022/09/08 02:17:57;;;;;;;;;;;;;;;22.69;63.70;100967.09;2062090;28;19984;-74
2022/09/08 02:19:20;;;;;;;;;;;;;;;22.72;63.93;100972.38;2061099;28;20381;-74
2022/09/08 02:20:41;;;;;;;;;;;;;;;22.74;63.51;100967.00;2062794;28;19922;-74
2022/09/08 02:22:03;;;;;;;;;;;;;;;22.74;63.61;100975.06;2069608;28;19921;-74
2022/09/08 02:23:24;;;;;;;;;;;;;;;22.73;63.38;100971.50;2062590;28;19986;-74
2022/09/08 02:24:46;;;;;;;;;;;;;;;22.71;63.59;100959.00;2054700;28;19922;-74
2022/09/08 02:26:09;;;;;;;;;;;;;;;22.68;63.40;100965.34;2066449;28;20524;-74
2022/09/08 02:27:32;;;;;;;;;;;;;;;22.66;63.37;100960.00;2056357;28;19950;-74
2022/09/08 02:28:54;;;;;;;;;;;;;;;22.66;63.62;100959.13;2059802;28;19922;-74
2022/09/08 02:30:15;;;;;;;;;;;;;;;22.68;63.67;100970.72;2061072;28;19976;-74
2022/09/08 02:31:38;;;;;;;;;;;;;;;22.67;63.74;100961.75;2053748;28;19932;-74
2022/09/08 02:32:59;;;;;;;;;;;;;;;22.67;63.83;100960.88;2049911;28;19922;-74
2022/09/08 02:34:21;;;;;;;;;;;;;;;22.69;63.78;100968.91;2061590;28;20454;-74
2022/09/08 02:35:42;;;;;;;;;;;;;;;22.66;63.93;100964.50;2061241;28;19996;-74
2022/09/08 02:37:04;;;;;;;;;;;;;;;22.66;64.06;100965.38;2054014;28;19922;-74
2022/09/08 02:38:25;;;;;;;;;;;;;;;22.63;64.05;100961.91;2061054;28;19933;-74
2022/09/08 02:39:48;;;;;;;;;;;;;;;22.62;63.94;100957.47;2062121;28;19926;-74
2022/09/08 02:41:10;;;;;;;;;;;;;;;22.60;64.06;100956.63;2058025;28;21840;-74
2022/09/08 02:42:34;;;;;;;;;;;;;;;22.58;64.27;100953.06;2054265;28;19936;-74
2022/09/08 02:43:57;;;;;;;;;;;;;;;22.56;64.33;100965.72;2053389;28;20305;-74
2022/09/08 02:45:18;;;;;;;;;;;;;;;22.51;64.42;100948.84;2047240;28;19922;-74
2022/09/08 02:46:40;;;;;;;;;;;;;;;22.53;64.37;100955.03;2058178;28;20557;-74
2022/09/08 02:48:02;;;;;;;;;;;;;;;22.50;64.26;100953.34;2062371;28;19921;-74
2022/09/08 02:49:24;;;;;;;;;;;;;;;22.50;64.35;100955.16;2053188;28;19922;-75
2022/09/08 02:50:45;;;;;;;;;;;;;;;22.49;64.56;100950.69;2059727;28;19921;-74
2022/09/08 02:52:08;;;;;;;;;;;;;;;22.50;64.72;100953.34;2061912;28;19926;-74
2022/09/08 02:53:31;;;;;;;;;;;;;;;22.55;64.67;100951.38;2052464;28;20012;-74
2022/09/08 02:54:52;;;;;;;;;;;;;;;22.57;64.50;100954.91;2059801;28;19972;-74
2022/09/08 02:56:14;;;;;;;;;;;;;;;22.56;64.49;100952.25;2060938;28;20382;-74
2022/09/08 02:57:36;;;;;;;;;;;;;;;22.54;64.65;100952.31;2061579;28;19921;-75
2022/09/08 02:58:58;;;;;;;;;;;;;;;22.53;64.71;100949.66;2055126;28;20314;-73
2022/09/08 03:00:20;;;;;;;;;;;;;;;22.53;64.96;100957.72;2061486;28;19922;-74
2022/09/08 03:01:43;;;;;;;;;;;;;;;22.52;64.57;100956.84;2061118;28;20001;-73
2022/09/08 03:03:04;;;;;;;;;;;;;;;22.52;64.67;100954.16;2054323;28;20306;-74
2022/09/08 03:04:27;;;;;;;;;;;;;;;22.50;64.75;100957.84;2058892;28;20341;-74
2022/09/08 03:05:48;;;;;;;;;;;;;;;22.47;64.74;100950.72;2056162;28;19996;-74
2022/09/08 03:07:11;;;;;;;;;;;;;;;22.46;64.92;100958.84;2061497;28;19948;-73
2022/09/08 03:08:32;;;;;;;;;;;;;;;22.42;64.83;100965.25;2061653;28;19922;-74
2022/09/08 03:09:54;;;;;;;;;;;;;;;22.41;64.84;100963.47;2057988;28;19922;-73
2022/09/08 03:11:16;;;;;;;;;;;;;;;22.42;64.78;100962.56;2053147;28;19954;-73
2022/09/08 03:12:40;;;;;;;;;;;;;;;22.40;64.72;100957.22;2056229;28;20008;-73
2022/09/08 03:14:03;;;;;;;;;;;;;;;22.37;64.94;100953.75;2055788;28;19941;-74
2022/09/08 03:15:27;;;;;;;;;;;;;;;22.34;65.36;100952.03;2056787;28;19964;-74
2022/09/08 03:16:47;;;;;;;;;;;;;;;22.32;65.09;100953.88;2063455;28;20459;-73
2022/09/08 03:18:10;;;;;;;;;;;;;;;22.30;65.18;100953.06;2064213;28;19921;-73
2022/09/08 03:19:31;;;;;;;;;;;;;;;22.31;65.30;100954.81;2061591;28;20362;-74
2022/09/08 03:20:59;;;;;;;;;;;;;;;22.32;65.21;100961.94;2061194;28;19921;-73
2022/09/08 03:22:20;;;;;;;;;;;;;;;22.33;65.07;100955.63;2055172;28;19922;-74
2022/09/08 03:23:42;;;;;;;;;;;;;;;22.33;65.24;100954.75;2052164;28;20478;-74
2022/09/08 03:25:04;;;;;;;;;;;;;;;22.32;65.11;100947.63;2049005;28;20286;-74
2022/09/08 03:26:27;;;;;;;;;;;;;;;22.32;64.90;100953.88;2044166;28;19922;-73
2022/09/08 03:27:49;;;;;;;;;;;;;;;22.33;65.08;100946.69;2053915;28;19922;-74
2022/09/08 03:29:11;;;;;;;;;;;;;;;22.34;65.07;100948.44;2061209;28;19929;-74
2022/09/08 03:30:34;;;;;;;;;;;;;;;22.34;64.87;100951.13;2052731;28;19922;-73
2022/09/08 03:31:57;;;;;;;;;;;;;;;22.35;64.87;100950.22;2053259;28;19921;-74
2022/09/08 03:33:18;;;;;;;;;;;;;;;22.33;65.06;100950.25;2054403;28;20024;-73
2022/09/08 03:34:40;;;;;;;;;;;;;;;22.33;65.14;100950.25;2061471;28;19957;-74
2022/09/08 03:36:02;;;;;;;;;;;;;;;22.33;65.32;100944.00;2059537;28;19968;-74
2022/09/08 03:37:24;;;;;;;;;;;;;;;22.36;65.03;100954.66;2062058;28;19921;-73
2022/09/08 03:38:47;;;;;;;;;;;;;;;22.38;64.88;100960.91;2050964;28;20289;-73
2022/09/08 03:40:09;;;;;;;;;;;;;;;22.38;65.21;100947.44;2056487;28;20036;-73
2022/09/08 03:41:31;;;;;;;;;;;;;;;22.36;65.02;100952.88;2052074;28;19958;-74
2022/09/08 03:42:54;;;;;;;;;;;;;;;22.33;65.10;100960.13;2059056;28;19929;-73
2022/09/08 03:44:16;;;;;;;;;;;;;;;22.30;65.42;100949.47;2059828;28;19957;-73
2022/09/08 03:45:40;;;;;;;;;;;;;;;22.31;65.48;100964.69;2063806;28;20328;-73
2022/09/08 03:47:03;;;;;;;;;;;;;;;22.33;65.37;100960.13;2054321;28;19925;-74
2022/09/08 03:48:25;;;;;;;;;;;;;;;22.33;65.53;100961.00;2055551;28;19929;-74
2022/09/08 03:49:48;;;;;;;;;;;;;;;22.34;65.56;100959.22;2064929;28;20164;-74
2022/09/08 03:51:10;;;;;;;;;;;;;;;22.36;65.53;100960.06;2064408;28;20440;-73
2022/09/08 03:52:32;;;;;;;;;;;;;;;22.41;65.60;100955.41;2057804;28;19921;-73
2022/09/08 03:54:46;;;;;;;;;;;;;;;22.43;65.08;100958.94;2068743;28;19921;-74
2022/09/08 03:55:39;;;;;;;;;;;;;;;22.42;65.47;100954.50;2055636;28;19992;-73
2022/09/08 03:57:01;;;;;;;;;;;;;;;22.41;65.33;100960.78;2055951;28;19922;-74
2022/09/08 03:58:23;;;;;;;;;;;;;;;22.40;65.52;100961.72;2063174;28;20298;-74
2022/09/08 03:59:45;;;;;;;;;;;;;;;22.40;65.47;100969.78;2060782;28;19929;-74
2022/09/08 04:01:08;;;;;;;;;;;;;;;22.39;65.50;100966.22;2060114;28;19921;-73
2022/09/08 04:02:30;;;;;;;;;;;;;;;22.40;65.58;100972.47;2050668;28;20262;-73
2022/09/08 04:03:52;;;;;;;;;;;;;;;22.39;65.96;100965.31;2049781;28;19922;-74
2022/09/08 04:05:13;;;;;;;;;;;;;;;22.38;65.57;100968.97;2058344;28;19922;-73
2022/09/08 04:06:35;;;;;;;;;;;;;;;22.37;65.46;100975.28;2053662;28;19922;-74
2022/09/08 04:07:56;;;;;;;;;;;;;;;22.38;65.56;100969.84;2043183;28;19923;-73
2022/09/08 04:09:18;;;;;;;;;;;;;;;22.39;65.50;100978.78;2055784;28;19932;-73
2022/09/08 04:10:43;;;;;;;;;;;;;;;22.41;65.71;100982.31;2055590;28;19922;-74
2022/09/08 04:12:05;;;;;;;;;;;;;;;22.45;65.55;100981.31;2053921;28;20329;-73
2022/09/08 04:13:28;;;;;;;;;;;;;;;22.48;65.67;100983.91;2048665;28;20021;-74
2022/09/08 04:14:50;;;;;;;;;;;;;;;22.51;65.55;100984.69;2045936;29;20544;-74
2022/09/08 04:16:12;;;;;;;;;;;;;;;22.57;65.55;100984.53;2053858;28;19957;-74
2022/09/08 04:17:34;;;;;;;;;;;;;;;22.63;65.56;100991.53;2057958;28;19921;-74
2022/09/08 04:18:57;;;;;;;;;;;;;;;22.68;65.49;100989.56;2061877;28;19921;-74
2022/09/08 04:20:19;;;;;;;;;;;;;;;22.69;65.35;100985.94;2060878;28;20013;-74
2022/09/08 04:21:40;;;;;;;;;;;;;;;22.71;65.22;100991.28;2052598;28;19964;-73
2022/09/08 04:23:02;;;;;;;;;;;;;;;22.69;65.39;100996.72;2058240;28;19980;-73
2022/09/08 04:24:25;;;;;;;;;;;;;;;22.70;65.24;101003.88;2061582;28;20396;-73
2022/09/08 04:25:54;;;;;;;;;;;;;;;22.71;65.30;100999.38;2059577;28;19967;-73
2022/09/08 04:27:16;;;;;;;;;;;;;;;22.72;65.21;100996.59;2055531;28;19961;-73
2022/09/08 04:28:40;;;;;;;;;;;;;;;22.72;65.11;100996.59;2050060;28;19989;-74
2022/09/08 04:30:01;;;;;;;;;;;;;;;22.72;65.28;101004.69;2061111;28;20021;-74
2022/09/08 04:31:23;;;;;;;;;;;;;;;22.73;65.24;100995.72;2060915;28;19942;-73
2022/09/08 04:32:45;;;;;;;;;;;;;;;22.78;64.99;101007.22;2052479;28;20314;-73
2022/09/08 04:34:06;;;;;;;;;;;;;;;22.83;65.02;101001.72;2058302;28;19974;-74
2022/09/08 04:35:28;;;;;;;;;;;;;;;22.87;65.04;101009.63;2059892;28;20461;-73
2022/09/08 04:36:49;;;;;;;;;;;;;;;22.92;64.88;101010.38;2061494;28;20040;-73
2022/09/08 04:38:12;;;;;;;;;;;;;;;22.97;64.95;101008.41;2053665;28;20024;-73
2022/09/08 04:39:35;;;;;;;;;;;;;;;23.01;64.74;101009.22;2058124;28;19922;-73
2022/09/08 04:41:03;;;;;;;;;;;;;;;23.04;64.78;101014.47;2062275;28;19949;-73
2022/09/08 04:42:25;;;;;;;;;;;;;;;23.05;64.70;101011.75;2050874;28;19922;-73
2022/09/08 04:43:47;;;;;;;;;;;;;;;23.04;64.83;101009.97;2049636;28;20370;-73
2022/09/08 04:45:10;;;;;;;;;;;;;;;23.09;64.67;101019.75;2055585;28;19929;-74
2022/09/08 04:46:31;;;;;;;;;;;;;;;23.15;64.63;101014.16;2053608;28;20001;-74
2022/09/08 04:47:53;;;;;;;;;;;;;;;23.22;64.62;101021.13;2060989;28;20559;-74
2022/09/08 04:49:14;;;;;;;;;;;;;;;23.26;64.56;101017.38;2059837;28;19926;-73
2022/09/08 04:50:36;;;;;;;;;;;;;;;23.32;64.48;101025.25;2047875;29;19922;-73
2022/09/08 04:51:57;;;;;;;;;;;;;;;23.39;64.62;101022.31;2050733;28;19925;-73
2022/09/08 04:53:19;;;;;;;;;;;;;;;23.46;64.36;101028.38;2047700;28;20235;-74
2022/09/08 04:54:42;;;;;;;;;;;;;;;23.48;64.39;101026.56;2055520;28;19933;-73
2022/09/08 04:56:04;;;;;;;;;;;;;;;23.51;64.28;101031.84;2049671;28;20398;-74
2022/09/08 04:57:28;;;;;;;;;;;;;;;23.57;64.34;101028.94;2048264;29;19922;-73
2022/09/08 04:58:50;;;;;;;;;;;;;;;23.61;64.15;101036.00;2056501;28;19922;-74
2022/09/08 05:00:13;;;;;;;;;;;;;;;23.63;64.21;101028.72;2058782;28;19926;-73
2022/09/08 05:01:35;;;;;;;;;;;;;;;23.67;64.18;101029.50;2057752;28;19921;-74
2022/09/08 05:02:58;;;;;;;;;;;;;;;23.68;64.05;101026.78;2057590;28;20362;-74
2022/09/08 05:04:20;;;;;;;;;;;;;;;23.68;64.23;101023.19;2055139;28;19972;-74
2022/09/08 05:05:41;;;;;;;;;;;;;;;23.68;64.15;101040.25;2058309;28;19929;-73
2022/09/08 05:07:03;;;;;;;;;;;;;;;23.68;64.38;101034.88;2049389;28;19978;-74
2022/09/08 05:08:24;;;;;;;;;;;;;;;23.73;64.17;101040.09;2051573;28;19926;-73
2022/09/08 05:09:46;;;;;;;;;;;;;;;23.78;64.21;101040.81;2065446;28;20325;-74
2022/09/08 05:11:09;;;;;;;;;;;;;;;23.86;64.14;101046.81;2063949;28;20064;-73
2022/09/08 05:12:32;;;;;;;;;;;;;;;23.93;63.96;101050.19;2052717;28;19932;-73
2022/09/08 05:13:56;;;;;;;;;;;;;;;23.97;63.94;101049.13;2057846;28;19921;-73
2022/09/08 05:15:19;;;;;;;;;;;;;;;24.00;63.88;101049.03;2056037;28;19922;-74
2022/09/08 05:16:41;;;;;;;;;;;;;;;24.07;63.84;101051.47;2053911;28;20340;-73
2022/09/08 05:18:03;;;;;;;;;;;;;;;24.12;63.65;101046.78;2048193;28;20305;-74
2022/09/08 05:19:26;;;;;;;;;;;;;;;24.11;63.67;101045.03;2052346;28;22029;-73
2022/09/08 05:20:54;;;;;;;;;;;;;;;24.09;63.82;101048.72;2055661;28;20008;-73
2022/09/08 05:22:16;;;;;;;;;;;;;;;24.07;63.71;101053.28;2061588;28;19922;-74
2022/09/08 05:23:38;;;;;;;;;;;;;;;24.06;63.85;101048.81;2052134;28;19926;-74
2022/09/08 05:25:01;;;;;;;;;;;;;;;24.07;64.04;101051.47;2060404;28;19925;-74
2022/09/08 05:26:23;;;;;;;;;;;;;;;24.13;63.90;101042.28;2059663;28;19968;-73
2022/09/08 05:27:45;;;;;;;;;;;;;;;24.25;64.05;101051.78;2058686;28;19949;-74
2022/09/08 05:29:08;;;;;;;;;;;;;;;24.35;63.53;101053.22;2069432;28;19926;-74
2022/09/08 05:30:30;;;;;;;;;;;;;;;24.39;63.21;101049.47;2047599;29;20018;-74
2022/09/08 05:31:52;;;;;;;;;;;;;;;24.39;63.38;101046.75;2063409;28;19925;-74
2022/09/08 05:33:13;;;;;;;;;;;;;;;24.38;63.45;101051.28;2063134;28;19922;-74
2022/09/08 05:34:35;;;;;;;;;;;;;;;24.40;63.41;101052.09;2061605;28;19922;-74
2022/09/08 05:35:57;;;;;;;;;;;;;;;24.43;63.38;101043.88;2047807;28;20301;-74
2022/09/08 05:37:19;;;;;;;;;;;;;;;24.52;63.43;101045.38;2042820;29;19977;-75
2022/09/08 05:38:40;;;;;;;;;;;;;;;24.76;63.36;101049.81;2053454;28;19949;-73
2022/09/08 05:40:02;;;;;;;;;;;;;;;25.00;62.58;101048.03;2052397;28;20271;-74
2022/09/08 05:41:24;;;;;;;;;;;;;;;25.06;62.73;101045.09;2053514;28;19922;-73
2022/09/08 05:42:46;;;;;;;;;;;;;;;25.08;62.94;101037.78;2044139;29;19950;-73
2022/09/08 05:44:13;;;;;;;;;;;;;;;25.06;62.66;101047.81;2055369;28;20019;-74
2022/09/08 05:45:34;;;;;;;;;;;;;;;25.05;62.58;101043.34;2056065;28;20091;-71
2022/09/08 05:46:56;;;;;;;;;;;;;;;25.08;62.85;101048.59;2053370;28;20275;-72
2022/09/08 05:48:18;;;;;;;;;;;;;;;25.14;62.63;101051.06;2049690;28;20078;-73
2022/09/08 05:49:41;;;;;;;;;;;;;;;25.15;62.39;101046.53;2050101;28;19922;-73
2022/09/08 05:51:04;;;;;;;;;;;;;;;25.11;62.51;101053.00;2053902;28;19922;-74
2022/09/08 05:52:26;;;;;;;;;;;;;;;25.15;62.97;101049.22;2052351;28;19934;-73
2022/09/08 05:53:48;;;;;;;;;;;;;;;25.45;62.38;101049.84;2061037;28;20293;-74
2022/09/08 05:55:11;;;;;;;;;;;;;;;25.83;61.44;101054.53;2055000;28;19926;-73
2022/09/08 05:56:33;;;;;;;;;;;;;;;26.06;60.78;101059.81;2059748;28;19922;-73
2022/09/08 05:57:54;;;;;;;;;;;;;;;26.25;61.29;101057.25;2062834;28;19922;-74
2022/09/08 05:59:19;;;;;;;;;;;;;;;26.44;60.99;101060.88;2059929;28;20366;-73
2022/09/08 06:00:40;;;;;;;;;;;;;;;26.46;60.76;101060.78;2051578;28;20689;-74
2022/09/08 06:02:02;;;;;;;;;;;;;;;26.39;61.22;101067.44;2065163;28;19921;-74
2022/09/08 06:03:24;;;;;;;;;;;;;;;26.36;61.26;101067.59;2056614;28;19922;-74
2022/09/08 06:04:46;;;;;;;;;;;;;;;26.52;60.98;101055.97;2057335;28;19983;-74
2022/09/08 06:06:09;;;;;;;;;;;;;;;26.85;60.04;101067.06;2062690;28;19929;-73
2022/09/08 06:07:32;;;;;;;;;;;;;;;27.01;60.25;101075.41;2057223;28;19930;-73
2022/09/08 06:08:55;;;;;;;;;;;;;;;27.00;59.76;101070.06;2060400;28;20318;-74
2022/09/08 06:10:16;;;;;;;;;;;;;;;26.92;59.81;101068.59;2064652;28;19922;-74
2022/09/08 06:11:39;;;;;;;;;;;;;;;26.95;60.46;101071.16;2057008;28;19929;-73
2022/09/08 06:13:00;;;;;;;;;;;;;;;27.04;60.26;101074.41;2053519;28;19934;-74
2022/09/08 06:14:24;;;;;;;;;;;;;;;27.06;60.00;101083.31;2054533;28;19965;-73
2022/09/08 06:15:45;;;;;;;;;;;;;;;27.04;60.08;101080.69;2068467;28;19944;-73
2022/09/08 06:17:07;;;;;;;;;;;;;;;26.98;59.50;101074.69;2064910;28;20333;-74
2022/09/08 06:18:30;;;;;;;;;;;;;;;26.90;59.22;101080.47;2061359;28;19968;-73
2022/09/08 06:19:51;;;;;;;;;;;;;;;26.83;59.71;101082.56;2045738;29;19922;-74
2022/09/08 06:21:14;;;;;;;;;;;;;;;26.81;59.64;101081.72;2056679;28;20325;-74
2022/09/08 06:22:36;;;;;;;;;;;;;;;26.79;59.60;101082.75;2060743;28;19975;-74
2022/09/08 06:23:59;;;;;;;;;;;;;;;26.75;58.89;101091.97;2062233;28;19922;-74
2022/09/08 06:25:21;;;;;;;;;;;;;;;26.67;59.43;101086.91;2064758;28;19926;-74
2022/09/08 06:27:04;;;;;;;;;;;;;;;26.64;59.34;101092.47;2061981;28;19921;-74
2022/09/08 06:28:32;;;;;;;;;;;;;;;26.60;59.34;101098.97;2065184;28;20017;-74
2022/09/08 06:30:01;;;;;;;;;;;;;;;26.55;59.67;101087.47;2062816;28;19933;-74
2022/09/08 06:31:28;;;;;;;;;;;;;;;26.49;59.81;101090.47;2063223;28;19922;-73
2022/09/08 06:32:51;;;;;;;;;;;;;;;26.39;60.06;101091.78;2054325;28;19922;-74
2022/09/08 06:34:16;;;;;;;;;;;;;;;26.33;60.09;101094.78;2059922;28;19922;-74
2022/09/08 06:35:43;;;;;;;;;;;;;;;26.27;59.99;101093.22;2055068;28;19972;-73
2022/09/08 06:37:05;;;;;;;;;;;;;;;26.22;60.01;101097.94;2055322;28;19961;-74
2022/09/08 06:38:31;;;;;;;;;;;;;;;26.22;60.21;101091.63;2046227;29;19923;-74
2022/09/08 06:39:55;;;;;;;;;;;;;;;26.20;60.01;101095.28;2045125;29;19965;-73
2022/09/08 06:41:21;;;;;;;;;;;;;;;26.22;59.78;101087.09;2044639;29;20378;-73
2022/09/08 06:42:47;;;;;;;;;;;;;;;26.25;59.58;101094.25;2060796;28;19956;-73
2022/09/08 06:44:14;;;;;;;;;;;;;;;26.46;59.39;101094.16;2057025;28;19922;-73
2022/09/08 06:45:39;;;;;;;;;;;;;;;26.66;58.66;101098.69;2055041;28;19922;-74
2022/09/08 06:47:01;;;;;;;;;;;;;;;26.77;58.30;101093.69;2064871;28;20403;-74
2022/09/08 06:48:28;;;;;;;;;;;;;;;26.74;58.40;101085.69;2062446;28;19937;-73
2022/09/08 06:49:52;;;;;;;;;;;;;;;26.69;58.25;101094.97;2055134;28;19977;-74
2022/09/08 06:51:28;;;;;;;;;;;;;;;26.65;58.44;101102.34;2059524;28;19991;-74
2022/09/08 06:52:51;;;;;;;;;;;;;;;26.73;58.43;101096.56;2063948;28;19926;-74
2022/09/08 06:54:22;;;;;;;;;;;;;;;26.82;58.16;101099.75;2054579;28;19993;-74
2022/09/08 06:55:48;;;;;;;;;;;;;;;26.84;58.50;101103.28;2063773;28;19975;-74
2022/09/08 06:57:15;;;;;;;;;;;;;;;26.81;58.13;101097.09;2056823;28;19922;-74
2022/09/08 06:58:41;;;;;;;;;;;;;;;26.77;58.11;101109.06;2056779;28;19976;-74
2022/09/08 07:00:09;;;;;;;;;;;;;;;26.73;58.01;101110.13;2057045;28;20302;-74
2022/09/08 07:01:39;;;;;;;;;;;;;;;26.74;57.92;101103.75;2052634;28;19973;-74
2022/09/08 07:03:08;;;;;;;;;;;;;;;26.66;57.93;101101.41;2061558;28;19925;-74
2022/09/08 07:04:36;;;;;;;;;;;;;;;26.55;58.10;101107.31;2062390;28;19922;-74
2022/09/08 07:06:02;;;;;;;;;;;;;;;26.53;58.28;101111.91;2054766;28;19922;-74
2022/09/08 07:07:27;;;;;;;;;;;;;;;26.77;58.44;101117.19;2068677;28;19929;-74
2022/09/08 07:09:03;;;;;;;;;;;;;;;26.99;57.16;101117.97;2056819;28;19929;-73
2022/09/08 07:10:28;;;;;;;;;;;;;;;27.04;57.39;101112.34;2064470;28;20044;-73
2022/09/08 07:11:55;;;;;;;;;;;;;;;26.99;56.81;101112.53;2054496;28;19921;-74
2022/09/08 07:13:22;;;;;;;;;;;;;;;26.89;57.04;101109.41;2054856;28;19922;-73